createdAt,value
2022-10-03T00:02:07.406Z,56.45
2022-10-03T00:04:58.695Z,56.32
2022-10-03T00:07:51.987Z,56.26
2022-10-03T00:10:46.692Z,56.63
2022-10-03T00:13:29.011Z,56.42
2022-10-03T00:16:09.397Z,56.49
2022-10-03T00:18:41.692Z,56.71
2022-10-03T00:21:43.413Z,56.63
2022-10-03T00:24:30.422Z,56.36
2022-10-03T00:27:14.317Z,56.52
2022-10-03T00:29:54.769Z,56.52
2022-10-03T00:32:48.704Z,56.28
2022-10-03T00:36:02.672Z,56.40
2022-10-03T00:38:47.179Z,56.08
2022-10-03T00:41:41.550Z,56.25
2022-10-03T00:44:20.990Z,56.27
2022-10-03T00:46:55.852Z,56.26
2022-10-03T00:50:04.418Z,56.41
2022-10-03T00:52:42.844Z,56.14
2022-10-03T00:55:41.746Z,56.46
2022-10-03T00:58:39.210Z,56.32
2022-10-03T01:01:28.663Z,56.38
2022-10-03T01:04:10.918Z,56.16
2022-10-03T01:06:57.918Z,56.36
2022-10-03T01:09:57.045Z,56.41
2022-10-03T01:12:47.841Z,56.11
2022-10-03T01:15:37.527Z,56.36
2022-10-03T01:18:13.169Z,56.36
2022-10-03T01:20:54.990Z,56.08
2022-10-03T01:23:29.268Z,56.12
2022-10-03T01:26:14.406Z,56.46
2022-10-03T01:29:11.913Z,56.55
2022-10-03T01:31:42.206Z,56.46
2022-10-03T01:34:23.213Z,56.47
2022-10-03T01:36:52.715Z,56.41
2022-10-03T01:39:34.941Z,56.25
2022-10-03T01:42:11.374Z,56.19
2022-10-03T01:44:44.063Z,56.24
2022-10-03T01:47:36.518Z,56.21
2022-10-03T01:50:24.100Z,56.14
2022-10-03T01:53:15.106Z,56.34
2022-10-03T01:56:08.607Z,56.12
2022-10-03T01:58:35.002Z,55.97
2022-10-03T02:01:07.892Z,56.22
2022-10-03T02:03:57.079Z,56.36
2022-10-03T02:06:38.568Z,56.39
2022-10-03T02:09:28.501Z,56.46
2022-10-03T02:12:25.528Z,56.44
2022-10-03T02:15:26.144Z,56.55
2022-10-03T02:18:02.555Z,56.55
2022-10-03T02:20:43.223Z,56.47
2022-10-03T02:23:37.030Z,56.40
2022-10-03T02:26:49.923Z,56.87
2022-10-03T02:29:29.945Z,56.44
2022-10-03T02:32:09.615Z,56.51
2022-10-03T02:35:06.028Z,56.41
2022-10-03T02:37:32.582Z,56.61
2022-10-03T02:40:05.188Z,56.54
2022-10-03T02:42:53.386Z,56.57
2022-10-03T02:45:28.889Z,56.55
2022-10-03T02:48:08.440Z,56.70
2022-10-03T02:50:59.817Z,56.68
2022-10-03T02:54:07.590Z,56.64
2022-10-03T02:56:57.802Z,56.79
2022-10-03T02:59:41.659Z,56.70
2022-10-03T03:02:37.546Z,56.55
2022-10-03T03:05:26.345Z,56.79
2022-10-03T03:08:19.222Z,56.85
2022-10-03T03:11:08.379Z,56.70
2022-10-03T03:13:56.503Z,56.63
2022-10-03T03:16:33.510Z,56.71
2022-10-03T03:19:15.318Z,56.93
2022-10-03T03:21:50.302Z,56.77
2022-10-03T03:24:37.068Z,56.82
2022-10-03T03:27:31.132Z,56.84
2022-10-03T03:30:11.647Z,56.83
2022-10-03T03:32:56.912Z,57.02
2022-10-03T03:35:26.434Z,57.18
2022-10-03T03:38:05.346Z,56.85
2022-10-03T03:40:56.464Z,56.99
2022-10-03T03:43:55.479Z,57.01
2022-10-03T03:46:29.878Z,56.96
2022-10-03T03:49:29.847Z,57.20
2022-10-03T03:52:14.157Z,56.94
2022-10-03T03:54:59.540Z,57.22
2022-10-03T03:57:46.557Z,56.98
2022-10-03T04:00:31.321Z,57.19
2022-10-03T04:03:20.018Z,57.18
2022-10-03T04:06:03.385Z,57.31
2022-10-03T04:08:47.161Z,57.27
2022-10-03T04:11:13.794Z,57.00
2022-10-03T04:13:44.656Z,57.03
2022-10-03T04:17:01.226Z,57.19
2022-10-03T04:19:55.253Z,57.25
2022-10-03T04:22:29.999Z,56.99
2022-10-03T04:25:22.945Z,57.21
2022-10-03T04:28:26.737Z,57.15
2022-10-03T04:31:02.542Z,56.98
2022-10-03T04:33:56.121Z,57.22
2022-10-03T04:36:31.538Z,56.94
2022-10-03T04:39:10.603Z,57.18
2022-10-03T04:41:54.751Z,57.18
2022-10-03T04:44:51.566Z,57.10
2022-10-03T04:47:20.840Z,56.98
2022-10-03T04:49:56.429Z,57.24
2022-10-03T04:52:51.896Z,57.29
2022-10-03T04:55:28.401Z,57.22
2022-10-03T04:58:32.212Z,57.32
2022-10-03T05:01:06.490Z,57.13
2022-10-03T05:04:15.925Z,57.18
2022-10-03T05:07:14.445Z,57.45
2022-10-03T05:10:04.498Z,57.26
2022-10-03T05:13:02.555Z,57.70
2022-10-03T05:16:06.187Z,57.43
2022-10-03T05:18:43.632Z,57.64
2022-10-03T05:21:10.026Z,57.69
2022-10-03T05:24:15.508Z,57.75
2022-10-03T05:27:39.287Z,57.58
2022-10-03T05:30:16.799Z,57.59
2022-10-03T05:32:51.162Z,57.77
2022-10-03T05:35:46.014Z,57.70
2022-10-03T05:38:29.542Z,57.82
2022-10-03T05:41:17.521Z,57.49
2022-10-03T05:44:05.111Z,57.74
2022-10-03T05:46:46.544Z,57.80
2022-10-03T05:49:34.756Z,57.77
2022-10-03T05:52:04.315Z,57.42
2022-10-03T05:54:50.413Z,57.76
2022-10-03T05:57:35.651Z,57.51
2022-10-03T06:00:19.867Z,57.61
2022-10-03T06:03:05.430Z,57.74
2022-10-03T06:06:03.359Z,57.55
2022-10-03T06:08:51.390Z,57.87
2022-10-03T06:11:44.445Z,57.58
2022-10-03T06:14:23.858Z,57.77
2022-10-03T06:17:37.609Z,57.84
2022-10-03T06:20:46.145Z,57.57
2022-10-03T06:23:48.121Z,57.67
2022-10-03T06:26:29.646Z,57.63
2022-10-03T06:29:08.253Z,57.95
2022-10-03T06:32:02.762Z,58.12
2022-10-03T06:34:48.673Z,58.27
2022-10-03T06:37:41.273Z,58.51
2022-10-03T06:40:42.162Z,58.10
2022-10-03T06:43:34.017Z,58.56
2022-10-03T06:46:28.498Z,58.76
2022-10-03T06:49:18.904Z,58.76
2022-10-03T06:52:04.908Z,59.11
2022-10-03T06:55:13.518Z,59.42
2022-10-03T06:57:58.567Z,59.09
2022-10-03T07:00:34.774Z,59.76
2022-10-03T07:04:11.653Z,60.16
2022-10-03T07:06:56.585Z,60.07
2022-10-03T07:09:41.769Z,60.38
2022-10-03T07:12:39.231Z,60.36
2022-10-03T07:15:18.178Z,60.34
2022-10-03T07:18:26.456Z,60.22
2022-10-03T07:21:24.310Z,60.44
2022-10-03T07:24:10.287Z,60.39
2022-10-03T07:26:43.774Z,60.02
2022-10-03T07:29:28.493Z,60.07
2022-10-03T07:32:13.330Z,59.90
2022-10-03T07:35:07.443Z,59.46
2022-10-03T07:38:24.894Z,59.12
2022-10-03T07:41:22.025Z,58.77
2022-10-03T07:44:01.705Z,58.57
2022-10-03T07:46:53.605Z,58.23
2022-10-03T07:50:04.270Z,58.15
2022-10-03T07:52:38.091Z,57.97
2022-10-03T07:55:19.373Z,58.24
2022-10-03T07:58:07.444Z,58.11
2022-10-03T08:01:03.761Z,58.13
2022-10-03T08:04:04.128Z,57.93
2022-10-03T08:06:44.831Z,57.89
2022-10-03T08:09:31.584Z,57.86
2022-10-03T08:12:16.281Z,58.21
2022-10-03T08:14:52.992Z,57.73
2022-10-03T08:17:51.055Z,57.83
2022-10-03T08:20:36.289Z,57.72
2022-10-03T08:23:41.867Z,57.89
2022-10-03T08:26:47.718Z,57.59
2022-10-03T08:29:33.044Z,57.30
2022-10-03T08:32:24.221Z,56.75
2022-10-03T08:35:09.747Z,57.11
2022-10-03T08:38:10.339Z,56.91
2022-10-03T08:40:53.825Z,57.32
2022-10-03T08:43:57.821Z,57.14
2022-10-03T08:46:51.679Z,56.75
2022-10-03T08:49:51.747Z,56.70
2022-10-03T08:52:44.049Z,56.86
2022-10-03T08:55:19.769Z,56.62
2022-10-03T08:58:11.502Z,56.43
2022-10-03T09:01:22.363Z,56.28
2022-10-03T09:03:58.165Z,56.26
2022-10-03T09:07:16.681Z,56.09
2022-10-03T09:09:58.930Z,56.34
2022-10-03T09:12:34.455Z,55.91
2022-10-03T09:15:14.200Z,55.96
2022-10-03T09:18:04.331Z,55.88
2022-10-03T09:20:36.457Z,55.60
2022-10-03T09:23:34.794Z,54.77
2022-10-03T09:26:35.706Z,54.54
2022-10-03T09:29:33.199Z,54.40
2022-10-03T09:32:18.119Z,54.11
2022-10-03T09:35:07.080Z,54.24
2022-10-03T09:37:50.524Z,54.02
2022-10-03T09:40:56.308Z,54.02
2022-10-03T09:43:50.458Z,54.14
2022-10-03T09:46:41.815Z,53.43
2022-10-03T09:49:23.975Z,53.24
2022-10-03T09:51:59.301Z,53.49
2022-10-03T09:54:28.773Z,53.45
2022-10-03T09:57:16.114Z,53.26
2022-10-03T09:59:58.210Z,52.90
2022-10-03T10:02:52.398Z,52.37
2022-10-03T10:05:49.798Z,52.01
2022-10-03T10:08:53.866Z,52.25
2022-10-03T10:11:54.194Z,52.03
2022-10-03T10:14:42.191Z,52.33
2022-10-03T10:17:46.305Z,51.88
2022-10-03T10:20:45.132Z,51.53
2022-10-03T10:23:24.683Z,51.35
2022-10-03T10:26:01.781Z,51.10
2022-10-03T10:28:28.213Z,50.57
2022-10-03T10:31:32.970Z,50.23
2022-10-03T10:34:19.198Z,50.28
2022-10-03T10:37:10.349Z,50.15
2022-10-03T10:39:53.065Z,50.04
2022-10-03T10:42:25.545Z,50.29
2022-10-03T10:45:15.557Z,50.19
2022-10-03T10:48:03.902Z,49.83
2022-10-03T10:51:07.883Z,49.54
2022-10-03T10:54:12.626Z,49.22
2022-10-03T10:56:57.325Z,48.61
2022-10-03T10:59:42.050Z,48.96
2022-10-03T11:02:24.026Z,49.13
2022-10-03T11:05:29.775Z,48.64
2022-10-03T11:08:21.024Z,48.63
2022-10-03T11:11:21.402Z,48.49
2022-10-03T11:14:17.262Z,47.91
2022-10-03T11:17:23.911Z,47.43
2022-10-03T11:20:27.509Z,47.27
2022-10-03T11:23:08.965Z,47.29
2022-10-03T11:25:54.244Z,47.01
2022-10-03T11:28:58.276Z,47.03
2022-10-03T11:31:46.795Z,46.84
2022-10-03T11:34:42.487Z,46.49
2022-10-03T11:37:50.820Z,46.56
2022-10-03T11:40:39.630Z,46.42
2022-10-03T11:43:46.274Z,46.31
2022-10-03T11:46:39.379Z,45.88
2022-10-03T11:49:38.926Z,45.74
2022-10-03T11:52:25.635Z,45.89
2022-10-03T11:55:01.625Z,45.53
2022-10-03T11:57:31.559Z,45.76
2022-10-03T12:00:19.896Z,45.66
2022-10-03T12:03:08.061Z,45.74
2022-10-03T12:06:31.239Z,45.55
2022-10-03T12:09:28.978Z,45.69
2022-10-03T12:12:28.075Z,45.67
2022-10-03T12:15:15.389Z,45.83
2022-10-03T12:17:51.073Z,45.97
2022-10-03T12:20:28.856Z,45.93
2022-10-03T12:23:13.013Z,45.86
2022-10-03T12:25:43.325Z,45.61
2022-10-03T12:28:36.022Z,45.41
2022-10-03T12:31:18.987Z,45.14
2022-10-03T12:34:12.505Z,45.15
2022-10-03T12:36:51.112Z,45.24
2022-10-03T12:39:45.534Z,44.75
2022-10-03T12:42:30.797Z,44.85
2022-10-03T12:45:19.174Z,44.68
2022-10-03T12:47:56.355Z,44.35
2022-10-03T12:50:43.110Z,44.35
2022-10-03T12:53:15.853Z,44.54
2022-10-03T12:55:51.496Z,44.63
2022-10-03T12:58:36.929Z,44.29
2022-10-03T13:01:09.353Z,44.27
2022-10-03T13:03:59.188Z,43.71
2022-10-03T13:07:03.006Z,43.92
2022-10-03T13:09:36.343Z,44.01
2022-10-03T13:12:22.041Z,43.30
2022-10-03T13:15:18.272Z,43.29
2022-10-03T13:18:04.170Z,43.60
2022-10-03T13:20:37.096Z,43.63
2022-10-03T13:23:14.386Z,43.81
2022-10-03T13:26:07.514Z,43.69
2022-10-03T13:28:59.740Z,43.51
2022-10-03T13:31:32.616Z,43.33
2022-10-03T13:34:10.385Z,43.14
2022-10-03T13:36:44.827Z,43.24
2022-10-03T13:39:25.862Z,43.01
2022-10-03T13:42:22.468Z,43.14
2022-10-03T13:44:55.555Z,43.31
2022-10-03T13:47:46.870Z,43.58
2022-10-03T13:50:19.053Z,43.68
2022-10-03T13:52:57.724Z,43.18
2022-10-03T13:55:42.227Z,43.44
2022-10-03T13:58:33.654Z,43.21
2022-10-03T14:01:28.360Z,43.16
2022-10-03T14:04:13.633Z,43.51
2022-10-03T14:06:48.399Z,43.41
2022-10-03T14:09:32.543Z,43.52
2022-10-03T14:12:13.636Z,43.89
2022-10-03T14:15:10.913Z,43.57
2022-10-03T14:17:51.657Z,44.10
2022-10-03T14:20:41.270Z,43.96
2022-10-03T14:23:24.310Z,44.01
2022-10-03T14:26:08.847Z,43.77
2022-10-03T14:28:47.260Z,44.10
2022-10-03T14:31:31.889Z,44.29
2022-10-03T14:34:44.008Z,44.24
2022-10-03T14:37:28.358Z,44.43
2022-10-03T14:40:17.664Z,43.92
2022-10-03T14:43:21.838Z,44.06
2022-10-03T14:45:52.095Z,44.33
2022-10-03T14:48:37.942Z,44.37
2022-10-03T14:51:20.153Z,44.36
2022-10-03T14:54:02.513Z,44.49
2022-10-03T14:56:41.915Z,44.36
2022-10-03T14:59:33.436Z,44.55
2022-10-03T15:02:20.462Z,44.41
2022-10-03T15:04:47.821Z,44.82
2022-10-03T15:07:15.095Z,44.95
2022-10-03T15:09:50.414Z,45.04
2022-10-03T15:12:23.869Z,45.00
2022-10-03T15:15:18.183Z,45.29
2022-10-03T15:17:53.649Z,44.93
2022-10-03T15:20:26.860Z,44.84
2022-10-03T15:22:56.954Z,44.97
2022-10-03T15:25:30.633Z,45.41
2022-10-03T15:28:02.738Z,45.33
2022-10-03T15:30:33.710Z,45.37
2022-10-03T15:33:22.945Z,45.53
2022-10-03T15:35:55.256Z,45.23
2022-10-03T15:38:27.165Z,45.40
2022-10-03T15:41:13.387Z,46.07
2022-10-03T15:44:02.418Z,46.11
2022-10-03T15:46:52.625Z,46.28
2022-10-03T15:49:37.459Z,46.37
2022-10-03T15:52:33.111Z,46.36
2022-10-03T15:55:12.638Z,46.36
2022-10-03T15:57:46.043Z,46.89
2022-10-03T16:00:28.910Z,46.97
2022-10-03T16:03:29.306Z,46.99
2022-10-03T16:06:07.574Z,46.97
2022-10-03T16:08:47.474Z,47.17
2022-10-03T16:11:21.282Z,46.76
2022-10-03T16:14:09.065Z,46.97
2022-10-03T16:16:54.794Z,47.41
2022-10-03T16:19:33.765Z,47.72
2022-10-03T16:22:06.230Z,47.68
2022-10-03T16:25:16.193Z,47.85
2022-10-03T16:27:53.751Z,48.03
2022-10-03T16:30:29.891Z,48.25
2022-10-03T16:33:20.067Z,48.29
2022-10-03T16:35:54.485Z,48.51
2022-10-03T16:38:44.801Z,48.26
2022-10-03T16:41:38.052Z,48.11
2022-10-03T16:44:22.966Z,48.24
2022-10-03T16:46:52.510Z,48.20
2022-10-03T16:49:43.767Z,48.34
2022-10-03T16:52:16.702Z,48.78
2022-10-03T16:54:47.036Z,48.90
2022-10-03T16:57:21.456Z,49.01
2022-10-03T16:59:51.990Z,48.93
2022-10-03T17:02:27.213Z,48.93
2022-10-03T17:05:07.845Z,48.94
2022-10-03T17:07:42.693Z,48.92
2022-10-03T17:10:34.757Z,49.18
2022-10-03T17:13:10.849Z,48.92
2022-10-03T17:15:46.057Z,49.09
2022-10-03T17:18:25.421Z,49.03
2022-10-03T17:21:15.363Z,49.01
2022-10-03T17:24:04.254Z,49.57
2022-10-03T17:26:39.234Z,49.28
2022-10-03T17:29:23.971Z,49.63
2022-10-03T17:32:05.884Z,49.51
2022-10-03T17:34:40.575Z,49.97
2022-10-03T17:37:39.131Z,49.97
2022-10-03T17:40:59.986Z,49.71
2022-10-03T17:43:43.101Z,50.01
2022-10-03T17:46:28.304Z,50.24
2022-10-03T17:49:18.158Z,50.34
2022-10-03T17:51:48.115Z,50.17
2022-10-03T17:54:30.694Z,50.30
2022-10-03T17:57:12.473Z,50.34
2022-10-03T17:59:52.710Z,50.79
2022-10-03T18:02:37.275Z,50.99
2022-10-03T18:05:18.868Z,50.88
2022-10-03T18:07:46.883Z,51.07
2022-10-03T18:10:24.306Z,50.82
2022-10-03T18:12:54.055Z,51.27
2022-10-03T18:15:58.095Z,51.31
2022-10-03T18:18:56.399Z,51.47
2022-10-03T18:21:46.995Z,51.95
2022-10-03T18:24:40.470Z,51.69
2022-10-03T18:27:34.362Z,51.80
2022-10-03T18:30:16.789Z,52.17
2022-10-03T18:32:45.568Z,51.96
2022-10-03T18:35:23.553Z,52.29
2022-10-03T18:37:55.312Z,52.00
2022-10-03T18:40:32.845Z,52.31
2022-10-03T18:43:00.899Z,52.55
2022-10-03T18:45:32.687Z,52.14
2022-10-03T18:48:25.295Z,52.64
2022-10-03T18:51:09.348Z,52.53
2022-10-03T18:53:44.874Z,52.45
2022-10-03T18:56:17.156Z,52.61
2022-10-03T18:58:59.231Z,52.74
2022-10-03T19:01:33.753Z,52.90
2022-10-03T19:04:16.281Z,52.81
2022-10-03T19:06:46.594Z,52.53
2022-10-03T19:09:25.023Z,53.12
2022-10-03T19:12:22.427Z,53.09
2022-10-03T19:15:01.002Z,52.88
2022-10-03T19:17:53.947Z,53.23
2022-10-03T19:20:26.773Z,53.15
2022-10-03T19:23:18.815Z,53.33
2022-10-03T19:25:52.165Z,53.53
2022-10-03T19:28:27.491Z,53.35
2022-10-03T19:31:03.102Z,53.22
2022-10-03T19:33:36.082Z,53.24
2022-10-03T19:36:05.655Z,53.50
2022-10-03T19:38:43.406Z,53.71
2022-10-03T19:41:25.668Z,53.62
2022-10-03T19:43:54.546Z,53.41
2022-10-03T19:46:29.978Z,53.84
2022-10-03T19:49:02.957Z,53.47
2022-10-03T19:51:29.544Z,53.71
2022-10-03T19:53:57.625Z,53.47
2022-10-03T19:56:26.941Z,53.92
2022-10-03T19:59:16.574Z,54.21
2022-10-03T20:01:49.141Z,54.01
2022-10-03T20:04:31.914Z,53.95
2022-10-03T20:06:58.758Z,53.96
2022-10-03T20:09:29.421Z,54.43
2022-10-03T20:11:59.810Z,54.21
2022-10-03T20:14:34.569Z,54.25
2022-10-03T20:17:14.679Z,54.43
2022-10-03T20:19:54.816Z,54.18
2022-10-03T20:22:26.521Z,54.67
2022-10-03T20:24:55.342Z,54.80
2022-10-03T20:27:36.883Z,54.82
2022-10-03T20:30:21.577Z,54.44
2022-10-03T20:32:49.524Z,54.67
2022-10-03T20:35:21.997Z,54.45
2022-10-03T20:38:03.446Z,54.97
2022-10-03T20:40:38.062Z,55.05
2022-10-03T20:43:23.092Z,54.79
2022-10-03T20:46:13.565Z,55.04
2022-10-03T20:48:52.728Z,55.16
2022-10-03T20:51:23.275Z,55.19
2022-10-03T20:53:54.841Z,55.06
2022-10-03T20:56:33.609Z,55.22
2022-10-03T20:59:05.656Z,55.09
2022-10-03T21:01:35.195Z,55.12
2022-10-03T21:04:30.341Z,55.26
2022-10-03T21:07:04.662Z,54.95
2022-10-03T21:09:42.930Z,55.25
2022-10-03T21:12:20.618Z,55.13
2022-10-03T21:15:33.660Z,55.07
2022-10-03T21:18:01.692Z,55.11
2022-10-03T21:20:36.230Z,54.92
2022-10-03T21:23:12.899Z,55.02
2022-10-03T21:25:43.746Z,54.92
2022-10-03T21:28:25.397Z,55.07
2022-10-03T21:31:27.983Z,55.36
2022-10-03T21:33:58.324Z,55.50
2022-10-03T21:36:33.484Z,55.40
2022-10-03T21:39:15.247Z,55.30
2022-10-03T21:41:52.636Z,55.48
2022-10-03T21:44:43.662Z,55.27
2022-10-03T21:47:44.129Z,55.20
2022-10-03T21:50:19.229Z,55.30
2022-10-03T21:53:01.029Z,55.57
2022-10-03T21:55:53.448Z,55.36
2022-10-03T21:58:33.231Z,55.45
2022-10-03T22:01:13.190Z,55.44
2022-10-03T22:03:57.899Z,55.46
2022-10-03T22:06:36.702Z,55.36
2022-10-03T22:09:11.911Z,55.20
2022-10-03T22:11:47.373Z,55.30
2022-10-03T22:14:32.679Z,55.36
2022-10-03T22:17:08.445Z,55.48
2022-10-03T22:19:43.782Z,55.64
2022-10-03T22:22:19.265Z,55.66
2022-10-03T22:25:17.403Z,55.55
2022-10-03T22:27:56.594Z,55.64
2022-10-03T22:30:23.501Z,55.46
2022-10-03T22:32:59.311Z,55.95
2022-10-03T22:35:31.506Z,55.62
2022-10-03T22:37:58.102Z,55.51
2022-10-03T22:40:25.895Z,55.81
2022-10-03T22:42:56.450Z,55.97
2022-10-03T22:45:29.566Z,55.61
2022-10-03T22:47:59.543Z,55.99
2022-10-03T22:50:31.534Z,55.68
2022-10-03T22:52:59.933Z,55.84
2022-10-03T22:55:28.079Z,55.98
2022-10-03T22:57:55.929Z,55.84
2022-10-03T23:00:28.577Z,55.88
2022-10-03T23:03:22.649Z,56.04
2022-10-03T23:06:11.035Z,56.23
2022-10-03T23:09:19.625Z,56.33
2022-10-03T23:11:48.841Z,55.81
2022-10-03T23:14:23.452Z,56.34
2022-10-03T23:17:00.628Z,56.55
2022-10-03T23:19:48.882Z,56.18
2022-10-03T23:22:19.453Z,56.26
2022-10-03T23:24:53.958Z,56.25
2022-10-03T23:27:38.654Z,56.42
2022-10-03T23:30:11.292Z,56.51
2022-10-03T23:32:47.022Z,56.71
2022-10-03T23:35:17.279Z,56.50
2022-10-03T23:37:48.343Z,56.71
2022-10-03T23:40:32.938Z,56.33
2022-10-03T23:43:29.310Z,56.67
2022-10-03T23:46:05.269Z,56.40
2022-10-03T23:48:42.286Z,56.54
2022-10-03T23:51:12.935Z,56.39
2022-10-03T23:53:51.358Z,56.38
2022-10-03T23:56:38.152Z,56.49
2022-10-03T23:59:05.083Z,56.37
